Rushville, OH

6:03 PM EST on March 04, 2015 (GMT -0500)
Newark Heath | Change Station
CLOSE
Current Station
Airport
Location: Newark Heath,
Elevation: 883 ft
Nearby Weather Stations
Active Advisory: Winter Storm Warning

Elev 883 ft 40.03 °N, 82.46 °W | Updated 13 minutes ago

Rain
Rain
34 °F
Feels Like 25 °F
N
12
Wind Variable Wind from NW

Today
High -- | Low -- °F
--% Chance of Precip.
Yesterday
High -- | Low -- °F
Precip. -- in
6:58 AM 6:24 PM
Waxing Gibbous, 99% visible
Pressure 29.99 in
Visibility 5.0 miles
Clouds Scattered Clouds 2000 ft
Scattered Clouds 2400 ft
Overcast 4200 ft
Windchill 25 °F
Dew Point 27 °F
Humidity 75%
Rainfall 0.52 in
Snow Depth Not available.
UV 0 out of 12
Pollen .60 out of 12
Air Quality Not available.
Flu Activity Not available.
METAR KVTA 042250Z AUTO 32010KT 5SM HZ SCT020 SCT024 OVC042 01/M03 A2999 RMK AO2

More Conditions Fewer Conditions

Pressure 29.99 in
Visibility 5.0 miles
Clouds Scattered Clouds 2000 ft
Scattered Clouds 2400 ft
Overcast 4200 ft
Windchill 25 °F
Dew Point 27 °F
Humidity 75%
Rainfall 0.52 in
Snow Depth Not available.
UV 0 out of 12
Pollen .60 out of 12
Air Quality Not available.
Flu Activity Not available.
METAR KVTA 042250Z AUTO 32010KT 5SM HZ SCT020 SCT024 OVC042 01/M03 A2999 RMK AO2

More Conditions Fewer Conditions

10-Day Weather Forecast

Almanac

Astronomy

Mar. 04, 2015 Rise Set
Actual Time
Civil Twilight
Nautical Twilight
Astronomical Twilight
Moon
Length of Visible Light
Length of Day
Tomorrow will be .
, % of the Moon is Illuminated

Today's Extremes

State Highs State Lows

Community

WunderPhotos

Upload Photos

1,802,596 photos uploaded!

WunderBlogs® & News

Nearby

Air Quality

  Air Quality AQ Index Pollutant
Not available.

Snow Depth

Station Depth Elevation

Earthquake Activity

City Distance Mag. Time & Date
Minimum magnitude displayed is 2.5.

Coastal Water Temperatures

Place Temperature

Nearby Weather Stations

Winter Storm Warning
Statement as of 4:01 PM EST on March 04, 2015

... Winter Storm Warning remains in effect until 1 PM EST
Thursday...

* hazard types... heavy snow.

* Accumulations... snow accumulation of 2 to 4 inches.

* Timing... heaviest snow accumulations will be from after sunset
through the early morning hours.

* Impacts... hazardous travel conditions are expected due to
reduced visibilities and snow accumulations.

Precautionary/preparedness actions...

Remember... a Winter Storm Warning means severe winter weather
conditions are imminent or highly likely. Stay tuned to NOAA
Weather Radio or your favorite source of information for the
latest updates. Additional details can also be found at
www.Weather.Gov/iln as well as on our facebook and twitter pages.